createdAt,value
2018-09-08T00:02:18.972Z,18.88
2018-09-08T00:04:47.904Z,18.78
2018-09-08T00:07:21.940Z,18.65
2018-09-08T00:09:50.908Z,18.59
2018-09-08T00:12:19.845Z,18.53
2018-09-08T00:14:47.768Z,18.49
2018-09-08T00:17:24.552Z,18.47
2018-09-08T00:19:58.451Z,18.47
2018-09-08T00:22:32.439Z,18.44
2018-09-08T00:25:06.333Z,18.38
2018-09-08T00:27:42.684Z,18.36
2018-09-08T00:30:13.763Z,18.35
2018-09-08T00:32:42.735Z,18.39
2018-09-08T00:35:11.744Z,18.30
2018-09-08T00:37:40.679Z,18.24
2018-09-08T00:40:09.632Z,18.11
2018-09-08T00:42:38.614Z,17.96
2018-09-08T00:45:07.739Z,17.88
2018-09-08T00:47:36.687Z,17.83
2018-09-08T00:50:05.844Z,17.81
2018-09-08T00:52:34.857Z,17.79
2018-09-08T00:55:03.804Z,17.77
2018-09-08T00:57:32.791Z,17.73
2018-09-08T01:00:01.785Z,17.74
2018-09-08T01:02:30.784Z,17.77
2018-09-08T01:04:59.728Z,17.82
2018-09-08T01:07:31.355Z,17.83
2018-09-08T01:10:02.363Z,17.84
2018-09-08T01:12:31.662Z,17.91
2018-09-08T01:15:01.244Z,17.99
2018-09-08T01:17:30.183Z,18.04
2018-09-08T01:19:59.147Z,18.12
2018-09-08T01:22:28.340Z,18.25
2018-09-08T01:24:57.385Z,18.34
2018-09-08T01:27:26.393Z,18.34
2018-09-08T01:29:55.381Z,18.11
2018-09-08T01:32:24.355Z,18.49
2018-09-08T01:34:53.561Z,18.57
2018-09-08T01:37:22.617Z,18.65
2018-09-08T01:39:51.623Z,18.76
2018-09-08T01:42:20.661Z,18.78
2018-09-08T01:44:49.597Z,18.51
2018-09-08T01:47:18.620Z,18.98
2018-09-08T01:49:47.564Z,18.99
2018-09-08T01:52:16.554Z,19.04
2018-09-08T01:54:45.512Z,19.00
2018-09-08T01:57:14.548Z,18.97
2018-09-08T01:59:43.606Z,18.90
2018-09-08T02:02:12.621Z,18.95
2018-09-08T02:04:41.565Z,18.98
2018-09-08T02:07:10.512Z,19.00
2018-09-08T02:09:39.436Z,18.96
2018-09-08T02:12:08.396Z,18.96
2018-09-08T02:14:37.488Z,18.95
2018-09-08T02:17:06.785Z,18.87
2018-09-08T02:19:35.829Z,18.79
2018-09-08T02:22:05.036Z,18.66
2018-09-08T02:24:34.037Z,18.61
2018-09-08T02:27:03.045Z,18.54
2018-09-08T02:29:32.009Z,18.52
2018-09-08T02:32:01.047Z,18.52
2018-09-08T02:34:29.989Z,18.55
2018-09-08T02:36:58.923Z,18.62
2018-09-08T02:39:27.868Z,18.66
2018-09-08T02:41:56.873Z,18.69
2018-09-08T02:44:25.865Z,18.72
2018-09-08T02:46:54.819Z,18.72
2018-09-08T02:49:25.041Z,18.75
2018-09-08T02:51:52.574Z,18.79
2018-09-08T02:54:20.149Z,18.85
2018-09-08T02:56:47.722Z,18.77
2018-09-08T02:59:15.205Z,18.71
2018-09-08T03:01:42.719Z,18.69
2018-09-08T03:04:10.185Z,18.68
2018-09-08T03:06:37.705Z,18.62
2018-09-08T03:09:05.297Z,18.53
2018-09-08T03:11:32.813Z,18.43
2018-09-08T03:14:00.340Z,18.36
2018-09-08T03:16:27.852Z,18.21
2018-09-08T03:18:55.308Z,18.10
2018-09-08T03:21:22.837Z,17.96
2018-09-08T03:23:50.294Z,17.87
2018-09-08T03:26:17.862Z,17.74
2018-09-08T03:28:45.355Z,17.65
2018-09-08T03:31:12.816Z,17.51
2018-09-08T03:33:40.291Z,17.44
2018-09-08T03:36:07.840Z,17.37
2018-09-08T03:38:35.523Z,17.30
2018-09-08T03:41:02.988Z,17.21
2018-09-08T03:43:30.541Z,17.17
2018-09-08T03:45:58.061Z,17.10
2018-09-08T03:48:25.516Z,17.07
2018-09-08T03:50:52.987Z,17.04
2018-09-08T03:53:20.490Z,17.06
2018-09-08T03:55:48.032Z,17.09
2018-09-08T03:58:15.492Z,17.13
2018-09-08T04:00:43.067Z,17.13
2018-09-08T04:03:12.093Z,17.13
2018-09-08T04:05:41.097Z,17.15
2018-09-08T04:08:10.190Z,17.10
2018-09-08T04:10:39.152Z,17.11
2018-09-08T04:13:08.189Z,17.15
2018-09-08T04:15:37.133Z,17.20
2018-09-08T04:18:06.166Z,17.22
2018-09-08T04:20:35.132Z,17.27
2018-09-08T04:23:04.133Z,17.29
2018-09-08T04:25:33.165Z,17.29
2018-09-08T04:28:02.135Z,17.38
2018-09-08T04:30:31.141Z,17.41
2018-09-08T04:33:00.117Z,17.46
2018-09-08T04:35:29.204Z,17.51
2018-09-08T04:37:58.196Z,17.77
2018-09-08T04:40:27.229Z,18.39
2018-09-08T04:42:56.176Z,19.08
2018-09-08T04:45:25.153Z,19.63
2018-09-08T04:47:54.169Z,19.98
2018-09-08T04:50:23.209Z,20.32
2018-09-08T04:52:52.223Z,20.78
2018-09-08T04:55:21.209Z,21.21
2018-09-08T04:57:50.265Z,21.61
2018-09-08T05:00:19.304Z,22.07
2018-09-08T05:02:48.332Z,22.53
2018-09-08T05:05:17.397Z,22.90
2018-09-08T05:07:46.412Z,23.36
2018-09-08T05:10:15.485Z,23.82
2018-09-08T05:12:44.522Z,23.92
2018-09-08T05:15:13.571Z,23.73
2018-09-08T05:17:42.613Z,24.26
2018-09-08T05:20:11.673Z,24.59
2018-09-08T05:22:40.712Z,24.96
2018-09-08T05:25:09.751Z,25.47
2018-09-08T05:27:38.769Z,25.78
2018-09-08T05:30:07.808Z,25.81
2018-09-08T05:32:36.832Z,25.82
2018-09-08T05:35:05.934Z,25.97
2018-09-08T05:37:34.957Z,25.95
2018-09-08T05:40:04.105Z,25.89
2018-09-08T05:42:33.104Z,25.68
2018-09-08T05:45:02.097Z,24.92
2018-09-08T05:47:31.117Z,24.65
2018-09-08T05:50:00.125Z,24.23
2018-09-08T05:52:29.184Z,24.09
2018-09-08T05:54:58.191Z,24.07
2018-09-08T05:57:27.260Z,24.19
2018-09-08T05:59:56.257Z,24.26
2018-09-08T06:02:25.209Z,24.10
2018-09-08T06:04:54.228Z,24.18
2018-09-08T06:07:23.220Z,24.40
2018-09-08T06:09:52.244Z,24.42
2018-09-08T06:12:21.229Z,24.25
2018-09-08T06:14:50.232Z,24.28
2018-09-08T06:17:19.304Z,24.71
2018-09-08T06:19:48.346Z,24.81
2018-09-08T06:22:17.446Z,24.69
2018-09-08T06:24:46.470Z,24.85
2018-09-08T06:27:15.532Z,24.87
2018-09-08T06:29:44.540Z,24.93
2018-09-08T06:32:13.640Z,25.32
2018-09-08T06:34:42.685Z,25.70
2018-09-08T06:37:11.766Z,25.77
2018-09-08T06:39:40.716Z,25.56
2018-09-08T06:42:09.653Z,25.74
2018-09-08T06:44:38.689Z,26.16
2018-09-08T06:47:07.680Z,26.49
2018-09-08T06:49:36.736Z,26.28
2018-09-08T06:52:05.814Z,26.20
2018-09-08T06:54:34.832Z,26.21
2018-09-08T06:57:03.780Z,26.08
2018-09-08T06:59:32.805Z,26.03
2018-09-08T07:02:01.830Z,26.04
2018-09-08T07:04:30.852Z,26.13
2018-09-08T07:06:59.868Z,26.25
2018-09-08T07:09:28.908Z,26.13
2018-09-08T07:11:57.961Z,26.21
2018-09-08T07:14:27.040Z,26.25
2018-09-08T07:16:56.113Z,26.36
2018-09-08T07:19:25.172Z,26.57
2018-09-08T07:21:54.155Z,26.80
2018-09-08T07:24:23.273Z,27.07
2018-09-08T07:26:52.327Z,27.13
2018-09-08T07:29:21.410Z,27.00
2018-09-08T07:31:50.421Z,27.04
2018-09-08T07:34:19.457Z,27.23
2018-09-08T07:36:48.440Z,27.23
2018-09-08T07:39:17.429Z,27.17
2018-09-08T07:41:46.511Z,27.20
2018-09-08T07:44:15.541Z,27.22
2018-09-08T07:46:44.483Z,27.33
2018-09-08T07:49:13.517Z,27.53
2018-09-08T07:51:42.548Z,27.65
2018-09-08T07:54:11.551Z,27.72
2018-09-08T07:56:40.532Z,27.66
2018-09-08T07:59:09.662Z,27.57
2018-09-08T08:01:38.680Z,27.64
2018-09-08T08:04:07.717Z,27.57
2018-09-08T08:06:36.788Z,27.65
2018-09-08T08:09:07.526Z,27.67
2018-09-08T08:11:36.753Z,27.84
2018-09-08T08:14:05.828Z,27.94
2018-09-08T08:16:34.991Z,28.03
2018-09-08T08:19:04.005Z,28.13
2018-09-08T08:21:33.000Z,28.36
2018-09-08T08:24:02.077Z,28.41
2018-09-08T08:26:31.044Z,28.36
2018-09-08T08:29:00.208Z,28.47
2018-09-08T08:31:29.219Z,28.64
2018-09-08T08:33:58.337Z,28.71
2018-09-08T08:36:27.402Z,28.72
2018-09-08T08:38:56.732Z,28.74
2018-09-08T08:41:25.699Z,28.79
2018-09-08T08:43:54.646Z,28.84
2018-09-08T08:46:23.604Z,29.09
2018-09-08T08:48:52.696Z,28.99
2018-09-08T08:51:32.477Z,29.07
2018-09-08T08:54:14.649Z,29.07
2018-09-08T08:56:43.735Z,29.17
2018-09-08T08:59:12.741Z,29.38
2018-09-08T09:01:42.118Z,29.58
2018-09-08T09:04:11.493Z,29.53
2018-09-08T09:06:40.550Z,29.26
2018-09-08T09:09:12.773Z,29.45
2018-09-08T09:11:41.807Z,29.53
2018-09-08T09:14:11.485Z,29.64
2018-09-08T09:16:40.699Z,29.78
2018-09-08T09:19:35.929Z,29.82
2018-09-08T09:22:17.136Z,29.96
2018-09-08T09:24:52.770Z,30.05
2018-09-08T09:27:21.889Z,30.16
2018-09-08T09:29:51.028Z,30.11
2018-09-08T09:32:20.084Z,30.16
2018-09-08T09:34:49.030Z,30.01
2018-09-08T09:37:18.116Z,29.89
2018-09-08T09:39:47.373Z,29.92
2018-09-08T09:42:16.401Z,30.02
2018-09-08T09:44:45.444Z,30.09
2018-09-08T09:47:14.532Z,30.05
2018-09-08T09:49:43.492Z,30.06
2018-09-08T09:52:12.515Z,30.03
2018-09-08T09:54:41.496Z,30.02
2018-09-08T09:57:10.492Z,30.12
2018-09-08T09:59:39.527Z,30.20
2018-09-08T10:03:12.050Z,30.41
2018-09-08T10:05:41.033Z,30.89
2018-09-08T10:08:10.097Z,31.22
2018-09-08T10:10:39.137Z,31.36
2018-09-08T10:13:08.122Z,31.11
2018-09-08T10:15:37.140Z,30.98
2018-09-08T10:18:06.133Z,30.96
2018-09-08T10:20:35.172Z,31.08
2018-09-08T10:23:04.218Z,31.46
2018-09-08T10:25:33.285Z,31.79
2018-09-08T10:28:02.290Z,31.68
2018-09-08T10:30:31.260Z,31.34
2018-09-08T10:33:00.295Z,31.20
2018-09-08T10:35:29.292Z,31.17
2018-09-08T10:37:58.333Z,30.99
2018-09-08T10:40:27.420Z,30.99
2018-09-08T10:42:56.380Z,31.15
2018-09-08T10:45:25.368Z,31.39
2018-09-08T10:47:54.373Z,31.50
2018-09-08T10:50:23.497Z,31.68
2018-09-08T10:52:52.532Z,32.61
2018-09-08T10:55:21.556Z,32.94
2018-09-08T10:57:50.526Z,33.31
2018-09-08T11:00:19.606Z,33.87
2018-09-08T11:02:48.934Z,34.12
2018-09-08T11:05:17.569Z,33.87
2018-09-08T11:07:46.647Z,34.07
2018-09-08T11:10:15.743Z,34.68
2018-09-08T11:12:44.717Z,35.15
2018-09-08T11:15:13.720Z,35.65
2018-09-08T11:17:42.726Z,35.15
2018-09-08T11:20:11.836Z,35.38
2018-09-08T11:22:40.812Z,35.40
2018-09-08T11:25:09.837Z,34.85
2018-09-08T11:27:38.811Z,35.16
2018-09-08T11:30:08.260Z,35.26
2018-09-08T11:32:37.222Z,35.23
2018-09-08T11:35:06.386Z,35.40
2018-09-08T11:37:35.352Z,36.01
2018-09-08T11:40:04.317Z,35.56
2018-09-08T11:42:33.465Z,36.14
2018-09-08T11:45:02.468Z,36.66
2018-09-08T11:47:31.495Z,37.28
2018-09-08T11:50:00.465Z,37.34
2018-09-08T11:52:29.463Z,37.99
2018-09-08T11:54:58.429Z,37.60
2018-09-08T11:57:27.373Z,37.40
2018-09-08T11:59:56.397Z,37.74
2018-09-08T12:02:25.340Z,38.05
2018-09-08T12:04:54.372Z,38.64
2018-09-08T12:07:23.339Z,39.21
2018-09-08T12:09:52.297Z,38.69
2018-09-08T12:12:21.322Z,37.82
2018-09-08T12:14:50.260Z,36.88
2018-09-08T12:17:19.344Z,36.87
2018-09-08T12:19:48.369Z,37.45
2018-09-08T12:22:17.443Z,37.29
2018-09-08T12:24:46.483Z,37.39
2018-09-08T12:27:15.497Z,37.53
2018-09-08T12:29:44.599Z,37.86
2018-09-08T12:32:13.552Z,38.44
2018-09-08T12:34:42.717Z,38.48
2018-09-08T12:37:11.723Z,36.80
2018-09-08T12:39:40.640Z,35.73
2018-09-08T12:42:09.600Z,34.36
2018-09-08T12:44:38.541Z,33.64
2018-09-08T12:47:07.508Z,32.74
2018-09-08T12:49:36.471Z,32.36
2018-09-08T12:52:05.596Z,32.05
2018-09-08T12:54:34.592Z,31.86
2018-09-08T12:57:03.584Z,31.55
2018-09-08T12:59:32.578Z,30.87
2018-09-08T13:02:01.596Z,30.69
2018-09-08T13:04:30.557Z,30.54
2018-09-08T13:06:59.541Z,30.38
2018-09-08T13:09:28.605Z,30.03
2018-09-08T13:11:57.617Z,29.83
2018-09-08T13:14:26.590Z,29.73
2018-09-08T13:16:55.569Z,29.65
2018-09-08T13:19:24.496Z,29.58
2018-09-08T13:21:53.517Z,29.44
2018-09-08T13:24:22.592Z,29.52
2018-09-08T13:26:51.680Z,29.46
2018-09-08T13:29:20.635Z,29.37
2018-09-08T13:31:49.577Z,29.32
2018-09-08T13:34:18.653Z,29.32
2018-09-08T13:36:47.592Z,29.28
2018-09-08T13:39:16.540Z,29.26
2018-09-08T13:41:45.673Z,29.22
2018-09-08T13:44:14.721Z,29.28
2018-09-08T13:46:43.655Z,29.22
2018-09-08T13:49:12.648Z,29.20
2018-09-08T13:51:41.594Z,29.13
2018-09-08T13:54:10.552Z,29.16
2018-09-08T13:56:39.585Z,29.12
2018-09-08T13:59:08.693Z,29.16
2018-09-08T14:01:37.708Z,29.14
2018-09-08T14:04:06.915Z,29.06
2018-09-08T14:06:35.828Z,28.80
2018-09-08T14:09:05.100Z,28.82
2018-09-08T14:11:34.028Z,28.86
2018-09-08T14:14:02.976Z,28.75
2018-09-08T14:16:31.932Z,28.77
2018-09-08T14:19:01.004Z,28.66
2018-09-08T14:21:29.996Z,28.64
2018-09-08T14:23:59.024Z,28.60
2018-09-08T14:26:28.097Z,28.55
2018-09-08T14:28:57.122Z,28.50
2018-09-08T14:31:26.145Z,28.35
2018-09-08T14:34:01.069Z,28.30
2018-09-08T14:36:30.132Z,28.18
2018-09-08T14:38:59.145Z,28.10
2018-09-08T14:41:28.205Z,28.07
2018-09-08T14:43:57.159Z,28.13
2018-09-08T14:46:26.116Z,28.23
2018-09-08T14:48:55.088Z,28.23
2018-09-08T14:51:24.051Z,28.34
2018-09-08T14:53:53.120Z,28.34
2018-09-08T14:56:22.167Z,28.29
2018-09-08T14:58:51.224Z,28.31
2018-09-08T15:01:20.420Z,28.12
2018-09-08T15:03:49.355Z,27.99
2018-09-08T15:06:18.357Z,27.84
2018-09-08T15:08:47.300Z,27.83
2018-09-08T15:11:16.493Z,27.74
2018-09-08T15:13:45.464Z,27.71
2018-09-08T15:16:14.517Z,27.69
2018-09-08T15:18:43.729Z,27.66
2018-09-08T15:21:12.729Z,27.61
2018-09-08T15:23:41.793Z,27.59
2018-09-08T15:26:10.796Z,27.63
2018-09-08T15:28:39.957Z,27.63
2018-09-08T15:31:08.915Z,27.56
2018-09-08T15:33:37.917Z,27.46
2018-09-08T15:36:06.975Z,27.37
2018-09-08T15:38:35.899Z,27.19
2018-09-08T15:41:04.971Z,27.10
2018-09-08T15:43:34.058Z,27.01
2018-09-08T15:46:03.171Z,26.99
2018-09-08T15:48:32.164Z,26.88
2018-09-08T15:51:01.120Z,26.85
2018-09-08T15:53:30.302Z,26.70
2018-09-08T15:55:59.476Z,26.65
2018-09-08T15:58:28.556Z,26.54
2018-09-08T16:00:57.520Z,26.49
2018-09-08T16:03:26.591Z,26.52
2018-09-08T16:05:55.704Z,26.50
2018-09-08T16:08:24.653Z,26.46
2018-09-08T16:10:53.688Z,26.42
2018-09-08T16:13:22.631Z,26.35
2018-09-08T16:15:51.653Z,26.23
2018-09-08T16:18:20.661Z,26.10
2018-09-08T16:20:49.710Z,26.01
2018-09-08T16:23:18.687Z,25.87
2018-09-08T16:25:47.636Z,25.80
2018-09-08T16:28:17.235Z,25.74
2018-09-08T16:30:46.248Z,25.74
2018-09-08T16:33:15.224Z,25.78
2018-09-08T16:35:44.180Z,25.64
2018-09-08T16:38:13.204Z,25.54
2018-09-08T16:40:42.188Z,25.41
2018-09-08T16:43:11.127Z,25.22
2018-09-08T16:45:40.144Z,25.12
2018-09-08T16:48:09.169Z,24.92
2018-09-08T16:50:38.163Z,24.72
2018-09-08T16:53:07.502Z,24.59
2018-09-08T16:55:36.537Z,24.45
2018-09-08T16:58:05.586Z,24.32
2018-09-08T17:00:34.674Z,24.17
2018-09-08T17:03:03.623Z,24.14
2018-09-08T17:05:32.618Z,24.06
2018-09-08T17:08:01.635Z,24.01
2018-09-08T17:10:30.665Z,23.98
2018-09-08T17:12:59.676Z,23.98
2018-09-08T17:15:28.746Z,23.97
2018-09-08T17:17:57.711Z,23.96
2018-09-08T17:20:26.793Z,23.97
2018-09-08T17:22:55.883Z,23.99
2018-09-08T17:25:24.887Z,24.00
2018-09-08T17:27:53.892Z,24.00
2018-09-08T17:30:23.016Z,24.00
2018-09-08T17:32:52.157Z,23.98
2018-09-08T17:35:21.096Z,23.98
2018-09-08T17:37:50.159Z,23.93
2018-09-08T17:40:19.388Z,23.89
2018-09-08T17:42:48.399Z,23.84
2018-09-08T17:45:17.356Z,23.76
2018-09-08T17:47:46.390Z,23.67
2018-09-08T17:50:15.381Z,23.24
2018-09-08T17:52:44.379Z,22.68
2018-09-08T17:55:13.344Z,22.22
2018-09-08T17:57:42.365Z,21.90
2018-09-08T18:00:12.818Z,21.69
2018-09-08T18:02:42.444Z,21.51
2018-09-08T18:05:11.997Z,21.42
2018-09-08T18:07:41.045Z,21.34
2018-09-08T18:10:10.443Z,21.25
2018-09-08T18:12:39.582Z,21.19
2018-09-08T18:15:09.144Z,21.12
2018-09-08T18:17:38.216Z,21.05
2018-09-08T18:20:07.352Z,21.00
2018-09-08T18:22:37.097Z,20.96
2018-09-08T18:25:06.376Z,20.93
2018-09-08T18:27:35.459Z,20.86
2018-09-08T18:30:04.546Z,20.82
2018-09-08T18:32:33.569Z,20.73
2018-09-08T18:35:02.593Z,20.70
2018-09-08T18:37:31.599Z,20.69
2018-09-08T18:40:00.621Z,20.62
2018-09-08T18:42:29.600Z,20.60
2018-09-08T18:44:58.589Z,20.61
2018-09-08T18:47:27.617Z,20.62
2018-09-08T18:49:56.677Z,20.65
2018-09-08T18:52:26.589Z,20.64
2018-09-08T18:54:55.700Z,20.72
2018-09-08T18:57:24.712Z,20.78
2018-09-08T18:59:53.738Z,20.79
2018-09-08T19:02:22.696Z,20.88
2018-09-08T19:04:51.723Z,20.95
2018-09-08T19:07:20.679Z,20.96
2018-09-08T19:09:54.848Z,21.03
2018-09-08T19:12:23.852Z,21.02
2018-09-08T19:15:28.531Z,21.06
2018-09-08T19:17:57.465Z,21.08
2018-09-08T19:20:31.589Z,21.13
2018-09-08T19:23:00.624Z,21.22
2018-09-08T19:25:29.580Z,21.26
2018-09-08T19:27:58.601Z,21.21
2018-09-08T19:30:27.657Z,21.19
2018-09-08T19:32:56.628Z,21.20
2018-09-08T19:35:30.668Z,21.13
2018-09-08T19:37:59.676Z,21.05
2018-09-08T19:40:33.730Z,21.06
2018-09-08T19:43:02.911Z,20.95
2018-09-08T19:45:31.950Z,20.92
2018-09-08T19:48:04.205Z,20.86
2018-09-08T19:50:33.624Z,20.78
2018-09-08T19:53:07.648Z,20.75
2018-09-08T19:55:36.635Z,20.78
2018-09-08T19:58:10.724Z,20.72
2018-09-08T20:00:39.760Z,20.77
2018-09-08T20:03:08.760Z,20.81
2018-09-08T20:05:37.878Z,20.84
2018-09-08T20:08:07.065Z,20.83
2018-09-08T20:10:36.084Z,20.78
2018-09-08T20:13:05.078Z,20.86
2018-09-08T20:15:34.174Z,20.87
2018-09-08T20:18:03.169Z,20.78
2018-09-08T20:20:32.180Z,20.75
2018-09-08T20:23:01.305Z,20.71
2018-09-08T20:25:30.373Z,20.70
2018-09-08T20:27:59.414Z,20.77
2018-09-08T20:30:28.396Z,20.74
2018-09-08T20:32:57.484Z,20.79
2018-09-08T20:35:26.505Z,20.75
2018-09-08T20:37:55.465Z,20.76
2018-09-08T20:40:24.427Z,20.80
2018-09-08T20:42:53.368Z,20.86
2018-09-08T20:45:22.415Z,20.98
2018-09-08T20:47:54.311Z,21.08
2018-09-08T20:50:23.551Z,21.16
2018-09-08T20:52:52.504Z,21.14
2018-09-08T20:55:21.443Z,21.20
2018-09-08T20:57:50.444Z,21.26
2018-09-08T21:00:19.446Z,21.27
2018-09-08T21:02:48.398Z,21.24
2018-09-08T21:05:17.424Z,21.25
2018-09-08T21:07:46.518Z,21.19
2018-09-08T21:10:15.539Z,21.21
2018-09-08T21:12:44.486Z,21.21
2018-09-08T21:15:13.505Z,21.16
2018-09-08T21:17:42.565Z,21.20
2018-09-08T21:20:11.588Z,21.07
2018-09-08T21:22:40.528Z,21.01
2018-09-08T21:25:09.617Z,20.89
2018-09-08T21:27:38.696Z,20.77
2018-09-08T21:30:07.692Z,20.60
2018-09-08T21:32:36.647Z,20.56
2018-09-08T21:35:05.580Z,20.60
2018-09-08T21:37:34.608Z,20.58
2018-09-08T21:40:03.621Z,20.53
2018-09-08T21:42:32.636Z,20.50
2018-09-08T21:45:01.710Z,20.52
2018-09-08T21:47:30.648Z,20.53
2018-09-08T21:49:59.649Z,20.53
2018-09-08T21:52:28.700Z,20.57
2018-09-08T21:54:57.704Z,20.58
2018-09-08T21:57:26.673Z,20.56
2018-09-08T21:59:55.681Z,20.51
2018-09-08T22:02:24.684Z,20.50
2018-09-08T22:04:53.698Z,20.43
2018-09-08T22:07:22.800Z,20.34
2018-09-08T22:09:51.870Z,20.30
2018-09-08T22:12:20.783Z,20.29
2018-09-08T22:14:49.760Z,20.21
2018-09-08T22:17:18.763Z,20.14
2018-09-08T22:19:47.696Z,20.11
2018-09-08T22:22:16.643Z,20.04
2018-09-08T22:24:45.695Z,20.01
2018-09-08T22:27:14.689Z,19.90
2018-09-08T22:29:43.652Z,19.77
2018-09-08T22:32:12.645Z,19.68
2018-09-08T22:34:41.760Z,19.63
2018-09-08T22:37:10.776Z,19.57
2018-09-08T22:39:39.780Z,19.51
2018-09-08T22:42:08.765Z,19.43
2018-09-08T22:44:37.786Z,19.36
2018-09-08T22:47:06.992Z,19.31
2018-09-08T22:49:36.040Z,19.29
2018-09-08T22:52:05.043Z,19.28
2018-09-08T22:54:33.982Z,19.21
2018-09-08T22:57:02.928Z,19.18
2018-09-08T22:59:32.010Z,19.18
2018-09-08T23:02:01.016Z,19.16
2018-09-08T23:04:30.037Z,19.17
2018-09-08T23:06:59.060Z,19.15
2018-09-08T23:09:28.152Z,19.10
2018-09-08T23:11:57.095Z,19.10
2018-09-08T23:14:26.093Z,19.05
2018-09-08T23:16:55.047Z,18.99
2018-09-08T23:19:23.978Z,18.93
2018-09-08T23:21:52.988Z,18.90
2018-09-08T23:24:21.988Z,18.91
2018-09-08T23:26:51.149Z,18.94
2018-09-08T23:29:20.083Z,19.04
2018-09-08T23:31:49.072Z,19.08
2018-09-08T23:34:18.052Z,19.11
2018-09-08T23:36:47.101Z,19.18
2018-09-08T23:39:16.132Z,19.27
2018-09-08T23:41:45.072Z,19.37
2018-09-08T23:44:14.090Z,19.42
2018-09-08T23:46:43.153Z,19.47
2018-09-08T23:49:12.201Z,19.50
2018-09-08T23:51:41.265Z,19.49
2018-09-08T23:54:10.211Z,19.58
2018-09-08T23:56:39.172Z,19.63
2018-09-08T23:59:08.112Z,19.65
